sensor_id;sensor_type;location;lat;lon;timestamp;pressure;altitude;pressure_sealevel;temperature;humidity
16255;BME280;8235;52.198;9.904;2023-01-26T00:02:10;101723.84;;;-1.76;94.58
16255;BME280;8235;52.198;9.904;2023-01-26T00:04:37;101722.09;;;-1.77;94.60
16255;BME280;8235;52.198;9.904;2023-01-26T00:07:03;101717.75;;;-1.76;94.56
16255;BME280;8235;52.198;9.904;2023-01-26T00:09:30;101721.25;;;-1.76;94.90
16255;BME280;8235;52.198;9.904;2023-01-26T00:11:56;101729.94;;;-1.75;94.92
16255;BME280;8235;52.198;9.904;2023-01-26T00:14:23;101721.25;;;-1.74;94.88
16255;BME280;8235;52.198;9.904;2023-01-26T00:16:49;101724.72;;;-1.75;94.47
16255;BME280;8235;52.198;9.904;2023-01-26T00:19:19;101722.97;;;-1.78;94.39
16255;BME280;8235;52.198;9.904;2023-01-26T00:21:45;101719.50;;;-1.80;94.40
16255;BME280;8235;52.198;9.904;2023-01-26T00:24:12;101711.66;;;-1.83;94.86
16255;BME280;8235;52.198;9.904;2023-01-26T00:26:38;101709.03;;;-1.86;94.12
16255;BME280;8235;52.198;9.904;2023-01-26T00:29:05;101715.09;;;-1.88;94.55
16255;BME280;8235;52.198;9.904;2023-01-26T00:31:31;101701.16;;;-1.93;94.28
16255;BME280;8235;52.198;9.904;2023-01-26T00:33:57;101703.75;;;-1.93;94.20
16255;BME280;8235;52.198;9.904;2023-01-26T00:36:25;101697.66;;;-1.95;94.22
16255;BME280;8235;52.198;9.904;2023-01-26T00:38:52;101697.66;;;-1.95;94.45
16255;BME280;8235;52.198;9.904;2023-01-26T00:41:19;101698.50;;;-1.96;94.14
16255;BME280;8235;52.198;9.904;2023-01-26T00:44:03;101707.25;;;-1.97;94.49
16255;BME280;8235;52.198;9.904;2023-01-26T00:46:30;101700.25;;;-2.00;93.76
16255;BME280;8235;52.198;9.904;2023-01-26T00:48:56;101689.81;;;-2.01;93.73
16255;BME280;8235;52.198;9.904;2023-01-26T00:51:26;101695.03;;;-2.01;93.80
16255;BME280;8235;52.198;9.904;2023-01-26T00:53:52;101697.66;;;-2.01;93.90
16255;BME280;8235;52.198;9.904;2023-01-26T00:56:19;101690.69;;;-2.01;93.80
16255;BME280;8235;52.198;9.904;2023-01-26T00:58:46;101687.22;;;-2.00;94.22
16255;BME280;8235;52.198;9.904;2023-01-26T01:01:12;101688.97;;;-1.99;93.86
16255;BME280;8235;52.198;9.904;2023-01-26T01:03:39;101686.34;;;-1.99;94.02
16255;BME280;8235;52.198;9.904;2023-01-26T01:06:05;101688.06;;;-1.96;94.14
16255;BME280;8235;52.198;9.904;2023-01-26T01:08:33;101674.16;;;-1.97;94.44
16255;BME280;8235;52.198;9.904;2023-01-26T01:11:04;101681.13;;;-1.93;93.97
16255;BME280;8235;52.198;9.904;2023-01-26T01:13:31;101670.69;;;-1.94;94.06
16255;BME280;8235;52.198;9.904;2023-01-26T01:15:58;101664.59;;;-1.93;94.12
16255;BME280;8235;52.198;9.904;2023-01-26T01:18:24;101665.47;;;-1.91;94.19
16255;BME280;8235;52.198;9.904;2023-01-26T01:20:50;101659.38;;;-1.92;94.25
16255;BME280;8235;52.198;9.904;2023-01-26T01:23:17;101669.81;;;-1.92;94.10
16255;BME280;8235;52.198;9.904;2023-01-26T01:25:45;101657.63;;;-1.93;94.44
16255;BME280;8235;52.198;9.904;2023-01-26T01:28:12;101658.50;;;-1.92;94.16
16255;BME280;8235;52.198;9.904;2023-01-26T01:30:38;101657.63;;;-1.93;94.49
16255;BME280;8235;52.198;9.904;2023-01-26T01:33:05;101657.63;;;-1.93;94.42
16255;BME280;8235;52.198;9.904;2023-01-26T01:35:32;101655.03;;;-1.93;93.90
16255;BME280;8235;52.198;9.904;2023-01-26T01:38:00;101648.06;;;-1.92;94.54
16255;BME280;8235;52.198;9.904;2023-01-26T01:40:26;101653.28;;;-1.92;94.10
16255;BME280;8235;52.198;9.904;2023-01-26T01:42:54;101651.53;;;-1.93;94.43
16255;BME280;8235;52.198;9.904;2023-01-26T01:45:39;101644.56;;;-1.94;94.00
16255;BME280;8235;52.198;9.904;2023-01-26T01:48:12;101644.59;;;-1.91;93.94
16255;BME280;8235;52.198;9.904;2023-01-26T01:50:40;101645.44;;;-1.94;93.70
16255;BME280;8235;52.198;9.904;2023-01-26T01:53:11;101636.75;;;-1.97;93.45
16255;BME280;8235;52.198;9.904;2023-01-26T01:55:39;101637.59;;;-1.97;93.64
16255;BME280;8235;52.198;9.904;2023-01-26T01:58:08;101640.22;;;-1.97;93.58
16255;BME280;8235;52.198;9.904;2023-01-26T02:00:35;101632.38;;;-1.95;93.93
16255;BME280;8235;52.198;9.904;2023-01-26T02:03:03;101633.25;;;-1.96;93.97
16255;BME280;8235;52.198;9.904;2023-01-26T02:05:45;101628.03;;;-1.96;94.15
16255;BME280;8235;52.198;9.904;2023-01-26T02:08:15;101628.91;;;-1.94;93.73
16255;BME280;8235;52.198;9.904;2023-01-26T02:10:45;101617.59;;;-1.93;93.60
16255;BME280;8235;52.198;9.904;2023-01-26T02:13:15;101615.84;;;-1.94;93.59
16255;BME280;8235;52.198;9.904;2023-01-26T02:15:43;101618.47;;;-1.91;93.99
16255;BME280;8235;52.198;9.904;2023-01-26T02:18:10;101613.25;;;-1.91;94.10
16255;BME280;8235;52.198;9.904;2023-01-26T02:20:42;101612.41;;;-1.90;93.60
16255;BME280;8235;52.198;9.904;2023-01-26T02:23:18;101609.78;;;-1.90;93.78
16255;BME280;8235;52.198;9.904;2023-01-26T02:26:07;101607.19;;;-1.89;93.83
16255;BME280;8235;52.198;9.904;2023-01-26T02:28:35;101593.25;;;-1.89;94.01
16255;BME280;8235;52.198;9.904;2023-01-26T02:31:02;101596.75;;;-1.89;93.61
16255;BME280;8235;52.198;9.904;2023-01-26T02:33:30;101600.22;;;-1.88;94.07
16255;BME280;8235;52.198;9.904;2023-01-26T02:35:58;101601.09;;;-1.86;93.89
16255;BME280;8235;52.198;9.904;2023-01-26T02:38:28;101596.75;;;-1.87;94.08
16255;BME280;8235;52.198;9.904;2023-01-26T02:40:59;101593.25;;;-1.89;94.36
16255;BME280;8235;52.198;9.904;2023-01-26T02:43:29;101599.34;;;-1.90;94.10
16255;BME280;8235;52.198;9.904;2023-01-26T02:45:55;101591.50;;;-1.90;94.22
16255;BME280;8235;52.198;9.904;2023-01-26T02:48:21;101592.38;;;-1.88;94.21
16255;BME280;8235;52.198;9.904;2023-01-26T02:51:02;101594.13;;;-1.87;93.76
16255;BME280;8235;52.198;9.904;2023-01-26T02:53:29;101585.44;;;-1.86;93.89
16255;BME280;8235;52.198;9.904;2023-01-26T02:55:56;101588.94;;;-1.84;94.22
16255;BME280;8235;52.198;9.904;2023-01-26T02:58:21;101591.53;;;-1.83;94.09
16255;BME280;8235;52.198;9.904;2023-01-26T03:00:49;101588.06;;;-1.83;94.02
16255;BME280;8235;52.198;9.904;2023-01-26T03:03:19;101588.06;;;-1.82;94.08
16255;BME280;8235;52.198;9.904;2023-01-26T03:05:47;101583.72;;;-1.80;94.02
16255;BME280;8235;52.198;9.904;2023-01-26T03:08:14;101579.34;;;-1.79;93.85
16255;BME280;8235;52.198;9.904;2023-01-26T03:10:40;101573.25;;;-1.78;94.11
16255;BME280;8235;52.198;9.904;2023-01-26T03:13:07;101576.72;;;-1.78;94.53
16255;BME280;8235;52.198;9.904;2023-01-26T03:15:34;101579.34;;;-1.76;94.38
16255;BME280;8235;52.198;9.904;2023-01-26T03:18:10;101575.88;;;-1.75;94.04
16255;BME280;8235;52.198;9.904;2023-01-26T03:21:02;101579.38;;;-1.73;94.01
16255;BME280;8235;52.198;9.904;2023-01-26T03:23:46;101575.00;;;-1.71;94.24
16255;BME280;8235;52.198;9.904;2023-01-26T03:26:30;101576.75;;;-1.70;94.45
16255;BME280;8235;52.198;9.904;2023-01-26T03:29:14;101578.50;;;-1.67;94.28
16255;BME280;8235;52.198;9.904;2023-01-26T03:31:41;101581.13;;;-1.66;94.53
16255;BME280;8235;52.198;9.904;2023-01-26T03:34:08;101571.56;;;-1.65;94.81
16255;BME280;8235;52.198;9.904;2023-01-26T03:36:35;101570.69;;;-1.66;94.70
16255;BME280;8235;52.198;9.904;2023-01-26T03:39:02;101575.91;;;-1.64;94.29
16255;BME280;8235;52.198;9.904;2023-01-26T03:41:28;101565.44;;;-1.67;94.41
16255;BME280;8235;52.198;9.904;2023-01-26T03:44:13;101569.81;;;-1.68;94.83
16255;BME280;8235;52.198;9.904;2023-01-26T03:46:57;101566.31;;;-1.67;94.75
16255;BME280;8235;52.198;9.904;2023-01-26T03:49:42;101567.19;;;-1.68;94.48
16255;BME280;8235;52.198;9.904;2023-01-26T03:52:26;101570.66;;;-1.69;94.83
16255;BME280;8235;52.198;9.904;2023-01-26T03:55:10;101568.06;;;-1.69;94.73
16255;BME280;8235;52.198;9.904;2023-01-26T03:57:54;101564.56;;;-1.69;94.46
16255;BME280;8235;52.198;9.904;2023-01-26T04:00:20;101566.31;;;-1.68;94.95
16255;BME280;8235;52.198;9.904;2023-01-26T04:02:46;101566.31;;;-1.67;94.80
16255;BME280;8235;52.198;9.904;2023-01-26T04:05:32;101569.81;;;-1.65;95.21
16255;BME280;8235;52.198;9.904;2023-01-26T04:08:16;101569.81;;;-1.62;94.92
16255;BME280;8235;52.198;9.904;2023-01-26T04:10:49;101561.97;;;-1.59;95.03
16255;BME280;8235;52.198;9.904;2023-01-26T04:13:16;101555.00;;;-1.60;95.21
16255;BME280;8235;52.198;9.904;2023-01-26T04:16:02;101559.34;;;-1.60;95.04
16255;BME280;8235;52.198;9.904;2023-01-26T04:18:46;101559.34;;;-1.59;94.96
16255;BME280;8235;52.198;9.904;2023-01-26T04:21:32;101555.00;;;-1.60;95.39
16255;BME280;8235;52.198;9.904;2023-01-26T04:24:01;101547.16;;;-1.58;95.13
16255;BME280;8235;52.198;9.904;2023-01-26T04:26:34;101546.28;;;-1.59;95.40
16255;BME280;8235;52.198;9.904;2023-01-26T04:29:01;101542.81;;;-1.58;95.29
16255;BME280;8235;52.198;9.904;2023-01-26T04:31:27;101544.56;;;-1.58;95.81
16255;BME280;8235;52.198;9.904;2023-01-26T04:33:54;101545.41;;;-1.58;95.28
16255;BME280;8235;52.198;9.904;2023-01-26T04:36:20;101547.16;;;-1.57;95.79
16255;BME280;8235;52.198;9.904;2023-01-26T04:38:48;101544.56;;;-1.55;96.18
16255;BME280;8235;52.198;9.904;2023-01-26T04:41:15;101537.59;;;-1.53;96.17
16255;BME280;8235;52.198;9.904;2023-01-26T04:43:41;101535.84;;;-1.53;96.43
16255;BME280;8235;52.198;9.904;2023-01-26T04:46:08;101528.03;;;-1.50;96.28
16255;BME280;8235;52.198;9.904;2023-01-26T04:48:35;101531.50;;;-1.49;96.42
16255;BME280;8235;52.198;9.904;2023-01-26T04:51:06;101537.59;;;-1.47;96.51
16255;BME280;8235;52.198;9.904;2023-01-26T04:53:33;101527.16;;;-1.47;96.55
16255;BME280;8235;52.198;9.904;2023-01-26T04:56:00;101534.13;;;-1.46;96.55
16255;BME280;8235;52.198;9.904;2023-01-26T04:58:27;101535.88;;;-1.47;96.31
16255;BME280;8235;52.198;9.904;2023-01-26T05:00:55;101531.50;;;-1.48;96.70
16255;BME280;8235;52.198;9.904;2023-01-26T05:03:22;101529.75;;;-1.49;96.34
16255;BME280;8235;52.198;9.904;2023-01-26T05:05:50;101529.75;;;-1.49;96.35
16255;BME280;8235;52.198;9.904;2023-01-26T05:08:17;101530.63;;;-1.50;96.54
16255;BME280;8235;52.198;9.904;2023-01-26T05:10:45;101523.66;;;-1.49;96.45
16255;BME280;8235;52.198;9.904;2023-01-26T05:13:13;101509.75;;;-1.50;96.85
16255;BME280;8235;52.198;9.904;2023-01-26T05:15:39;101520.19;;;-1.50;96.53
16255;BME280;8235;52.198;9.904;2023-01-26T05:18:06;101518.44;;;-1.49;96.56
16255;BME280;8235;52.198;9.904;2023-01-26T05:20:33;101521.06;;;-1.51;96.53
16255;BME280;8235;52.198;9.904;2023-01-26T05:22:59;101520.19;;;-1.51;97.07
16255;BME280;8235;52.198;9.904;2023-01-26T05:25:35;101528.03;;;-1.48;97.46
16255;BME280;8235;52.198;9.904;2023-01-26T05:28:01;101519.31;;;-1.47;97.58
16255;BME280;8235;52.198;9.904;2023-01-26T05:30:29;101526.28;;;-1.46;97.66
16255;BME280;8235;52.198;9.904;2023-01-26T05:32:59;101523.69;;;-1.45;97.65
16255;BME280;8235;52.198;9.904;2023-01-26T05:35:26;101528.88;;;-1.43;97.75
16255;BME280;8235;52.198;9.904;2023-01-26T05:37:53;101534.09;;;-1.43;97.92
16255;BME280;8235;52.198;9.904;2023-01-26T05:40:20;101528.88;;;-1.43;97.57
16255;BME280;8235;52.198;9.904;2023-01-26T05:42:47;101524.53;;;-1.43;97.91
16255;BME280;8235;52.198;9.904;2023-01-26T05:45:13;101532.34;;;-1.41;97.83
16255;BME280;8235;52.198;9.904;2023-01-26T05:47:43;101528.00;;;-1.41;98.32
16255;BME280;8235;52.198;9.904;2023-01-26T05:50:11;101526.25;;;-1.42;98.23
16255;BME280;8235;52.198;9.904;2023-01-26T05:52:38;101522.81;;;-1.44;98.57
16255;BME280;8235;52.198;9.904;2023-01-26T05:55:05;101526.25;;;-1.43;98.40
16255;BME280;8235;52.198;9.904;2023-01-26T05:57:32;101529.75;;;-1.43;98.16
16255;BME280;8235;52.198;9.904;2023-01-26T05:59:58;101536.72;;;-1.43;98.49
16255;BME280;8235;52.198;9.904;2023-01-26T06:02:25;101529.75;;;-1.43;98.58
16255;BME280;8235;52.198;9.904;2023-01-26T06:04:53;101539.31;;;-1.42;98.47
16255;BME280;8235;52.198;9.904;2023-01-26T06:07:20;101536.72;;;-1.43;98.42
16255;BME280;8235;52.198;9.904;2023-01-26T06:09:49;101535.88;;;-1.44;98.45
16255;BME280;8235;52.198;9.904;2023-01-26T06:12:17;101535.88;;;-1.44;98.59
16255;BME280;8235;52.198;9.904;2023-01-26T06:14:44;101534.09;;;-1.43;98.82
16255;BME280;8235;52.198;9.904;2023-01-26T06:17:10;101533.25;;;-1.44;98.46
16255;BME280;8235;52.198;9.904;2023-01-26T06:19:37;101536.75;;;-1.45;99.22
16255;BME280;8235;52.198;9.904;2023-01-26T06:22:06;101538.47;;;-1.44;99.23
16255;BME280;8235;52.198;9.904;2023-01-26T06:24:33;101538.47;;;-1.44;99.06
16255;BME280;8235;52.198;9.904;2023-01-26T06:26:59;101548.06;;;-1.44;99.60
16255;BME280;8235;52.198;9.904;2023-01-26T06:29:26;101548.06;;;-1.44;99.26
16255;BME280;8235;52.198;9.904;2023-01-26T06:31:52;101550.66;;;-1.43;99.01
16255;BME280;8235;52.198;9.904;2023-01-26T06:34:19;101552.38;;;-1.42;99.61
16255;BME280;8235;52.198;9.904;2023-01-26T06:36:45;101551.50;;;-1.42;99.82
16255;BME280;8235;52.198;9.904;2023-01-26T06:39:13;101551.50;;;-1.42;99.56
16255;BME280;8235;52.198;9.904;2023-01-26T06:41:41;101557.63;;;-1.40;99.79
16255;BME280;8235;52.198;9.904;2023-01-26T06:44:08;101550.66;;;-1.40;99.80
16255;BME280;8235;52.198;9.904;2023-01-26T06:46:35;101545.44;;;-1.40;100.00
16255;BME280;8235;52.198;9.904;2023-01-26T06:49:02;101561.97;;;-1.37;100.00
16255;BME280;8235;52.198;9.904;2023-01-26T06:51:45;101554.13;;;-1.37;100.00
16255;BME280;8235;52.198;9.904;2023-01-26T06:54:14;101562.84;;;-1.37;100.00
16255;BME280;8235;52.198;9.904;2023-01-26T06:56:40;101549.78;;;-1.37;100.00
16255;BME280;8235;52.198;9.904;2023-01-26T06:59:07;101560.25;;;-1.35;100.00
16255;BME280;8235;52.198;9.904;2023-01-26T07:01:36;101559.38;;;-1.36;100.00
16255;BME280;8235;52.198;9.904;2023-01-26T07:04:04;101555.88;;;-1.36;100.00
16255;BME280;8235;52.198;9.904;2023-01-26T07:06:30;101563.72;;;-1.36;100.00
16255;BME280;8235;52.198;9.904;2023-01-26T07:08:57;101555.88;;;-1.36;100.00
16255;BME280;8235;52.198;9.904;2023-01-26T07:11:24;101553.28;;;-1.36;100.00
16255;BME280;8235;52.198;9.904;2023-01-26T07:13:54;101555.00;;;-1.37;100.00
16255;BME280;8235;52.198;9.904;2023-01-26T07:16:20;101560.25;;;-1.37;100.00
16255;BME280;8235;52.198;9.904;2023-01-26T07:18:47;101556.75;;;-1.37;100.00
16255;BME280;8235;52.198;9.904;2023-01-26T07:21:16;101557.63;;;-1.38;100.00
16255;BME280;8235;52.198;9.904;2023-01-26T07:23:43;101559.38;;;-1.37;100.00
16255;BME280;8235;52.198;9.904;2023-01-26T07:26:10;101562.84;;;-1.35;100.00
16255;BME280;8235;52.198;9.904;2023-01-26T07:28:37;101562.00;;;-1.33;100.00
16255;BME280;8235;52.198;9.904;2023-01-26T07:31:05;101557.63;;;-1.32;100.00
16255;BME280;8235;52.198;9.904;2023-01-26T07:33:33;101563.72;;;-1.33;100.00
16255;BME280;8235;52.198;9.904;2023-01-26T07:35:59;101566.34;;;-1.33;100.00
16255;BME280;8235;52.198;9.904;2023-01-26T07:38:27;101562.00;;;-1.33;100.00
16255;BME280;8235;52.198;9.904;2023-01-26T07:40:54;101562.00;;;-1.31;100.00
16255;BME280;8235;52.198;9.904;2023-01-26T07:43:20;101560.25;;;-1.29;100.00
16255;BME280;8235;52.198;9.904;2023-01-26T07:45:49;101566.34;;;-1.30;100.00
16255;BME280;8235;52.198;9.904;2023-01-26T07:48:16;101562.88;;;-1.31;100.00
16255;BME280;8235;52.198;9.904;2023-01-26T07:50:43;101564.59;;;-1.31;100.00
16255;BME280;8235;52.198;9.904;2023-01-26T07:53:12;101563.72;;;-1.30;100.00
16255;BME280;8235;52.198;9.904;2023-01-26T07:55:39;101569.84;;;-1.30;100.00
16255;BME280;8235;52.198;9.904;2023-01-26T07:58:07;101571.56;;;-1.27;100.00
16255;BME280;8235;52.198;9.904;2023-01-26T08:00:34;101567.19;;;-1.25;100.00
16255;BME280;8235;52.198;9.904;2023-01-26T08:03:02;101567.19;;;-1.24;100.00
16255;BME280;8235;52.198;9.904;2023-01-26T08:05:28;101566.31;;;-1.21;100.00
16255;BME280;8235;52.198;9.904;2023-01-26T08:07:56;101568.06;;;-1.22;100.00
16255;BME280;8235;52.198;9.904;2023-01-26T08:10:22;101568.94;;;-1.20;100.00
16255;BME280;8235;52.198;9.904;2023-01-26T08:12:49;101565.47;;;-1.19;100.00
16255;BME280;8235;52.198;9.904;2023-01-26T08:15:15;101559.34;;;-1.18;100.00
16255;BME280;8235;52.198;9.904;2023-01-26T08:17:42;101565.47;;;-1.16;100.00
16255;BME280;8235;52.198;9.904;2023-01-26T08:20:10;101563.72;;;-1.17;100.00
16255;BME280;8235;52.198;9.904;2023-01-26T08:22:38;101563.72;;;-1.15;100.00
16255;BME280;8235;52.198;9.904;2023-01-26T08:25:05;101568.06;;;-1.16;100.00
16255;BME280;8235;52.198;9.904;2023-01-26T08:27:32;101567.19;;;-1.13;100.00
16255;BME280;8235;52.198;9.904;2023-01-26T08:29:58;101573.31;;;-1.11;100.00
16255;BME280;8235;52.198;9.904;2023-01-26T08:32:24;101568.94;;;-1.09;100.00
16255;BME280;8235;52.198;9.904;2023-01-26T08:34:51;101568.91;;;-1.06;100.00
16255;BME280;8235;52.198;9.904;2023-01-26T08:37:19;101568.91;;;-1.05;100.00
16255;BME280;8235;52.198;9.904;2023-01-26T08:39:45;101565.44;;;-1.02;100.00
16255;BME280;8235;52.198;9.904;2023-01-26T08:42:12;101560.22;;;-0.99;100.00
16255;BME280;8235;52.198;9.904;2023-01-26T08:44:38;101567.19;;;-0.96;100.00
16255;BME280;8235;52.198;9.904;2023-01-26T08:47:04;101571.53;;;-0.97;100.00
16255;BME280;8235;52.198;9.904;2023-01-26T08:49:31;101564.56;;;-0.95;100.00
16255;BME280;8235;52.198;9.904;2023-01-26T08:51:57;101577.63;;;-0.90;100.00
16255;BME280;8235;52.198;9.904;2023-01-26T08:54:25;101572.38;;;-0.87;100.00
16255;BME280;8235;52.198;9.904;2023-01-26T08:56:52;101571.50;;;-0.86;100.00
16255;BME280;8235;52.198;9.904;2023-01-26T08:59:19;101570.63;;;-0.82;100.00
16255;BME280;8235;52.198;9.904;2023-01-26T09:01:47;101572.38;;;-0.80;100.00
16255;BME280;8235;52.198;9.904;2023-01-26T09:04:13;101575.00;;;-0.77;100.00
16255;BME280;8235;52.198;9.904;2023-01-26T09:06:39;101582.84;;;-0.75;100.00
16255;BME280;8235;52.198;9.904;2023-01-26T09:09:06;101578.44;;;-0.72;100.00
16255;BME280;8235;52.198;9.904;2023-01-26T09:11:38;101582.81;;;-0.69;100.00
16255;BME280;8235;52.198;9.904;2023-01-26T09:14:05;101581.94;;;-0.68;100.00
16255;BME280;8235;52.198;9.904;2023-01-26T09:16:31;101573.22;;;-0.65;100.00
16255;BME280;8235;52.198;9.904;2023-01-26T09:18:57;101577.56;;;-0.64;100.00
16255;BME280;8235;52.198;9.904;2023-01-26T09:21:24;101572.34;;;-0.61;100.00
16255;BME280;8235;52.198;9.904;2023-01-26T09:23:50;101573.19;;;-0.58;100.00
16255;BME280;8235;52.198;9.904;2023-01-26T09:26:17;101581.03;;;-0.56;100.00
16255;BME280;8235;52.198;9.904;2023-01-26T09:28:49;101579.31;;;-0.54;100.00
16255;BME280;8235;52.198;9.904;2023-01-26T09:31:15;101571.44;;;-0.54;100.00
16255;BME280;8235;52.198;9.904;2023-01-26T09:33:41;101576.66;;;-0.53;100.00
16255;BME280;8235;52.198;9.904;2023-01-26T09:36:09;101561.81;;;-0.51;100.00
16255;BME280;8235;52.198;9.904;2023-01-26T09:38:36;101570.53;;;-0.49;100.00
16255;BME280;8235;52.198;9.904;2023-01-26T09:41:05;101567.91;;;-0.47;100.00
16255;BME280;8235;52.198;9.904;2023-01-26T09:43:37;101564.41;;;-0.43;100.00
16255;BME280;8235;52.198;9.904;2023-01-26T09:46:18;101559.19;;;-0.40;100.00
16255;BME280;8235;52.198;9.904;2023-01-26T09:48:51;101569.59;;;-0.36;100.00
16255;BME280;8235;52.198;9.904;2023-01-26T09:51:24;101572.22;;;-0.32;100.00
16255;BME280;8235;52.198;9.904;2023-01-26T09:53:55;101561.75;;;-0.31;100.00
16255;BME280;8235;52.198;9.904;2023-01-26T09:56:26;101560.88;;;-0.28;100.00
16255;BME280;8235;52.198;9.904;2023-01-26T09:58:56;101569.59;;;-0.25;100.00
16255;BME280;8235;52.198;9.904;2023-01-26T10:01:32;101557.34;;;-0.23;100.00
16255;BME280;8235;52.198;9.904;2023-01-26T10:04:08;101566.06;;;-0.21;100.00
16255;BME280;8235;52.198;9.904;2023-01-26T10:06:37;101567.81;;;-0.20;100.00
16255;BME280;8235;52.198;9.904;2023-01-26T10:09:07;101563.47;;;-0.19;100.00
16255;BME280;8235;52.198;9.904;2023-01-26T10:11:40;101558.19;;;-0.18;100.00
16255;BME280;8235;52.198;9.904;2023-01-26T10:14:12;101556.44;;;-0.16;100.00
16255;BME280;8235;52.198;9.904;2023-01-26T10:16:43;101552.94;;;-0.18;100.00
16255;BME280;8235;52.198;9.904;2023-01-26T10:19:13;101539.84;;;-0.18;100.00
16255;BME280;8235;52.198;9.904;2023-01-26T10:21:44;101542.47;;;-0.16;100.00
16255;BME280;8235;52.198;9.904;2023-01-26T10:24:13;101554.69;;;-0.15;100.00
16255;BME280;8235;52.198;9.904;2023-01-26T10:26:42;101557.28;;;-0.14;100.00
16255;BME280;8235;52.198;9.904;2023-01-26T10:29:12;101555.56;;;-0.13;100.00
16255;BME280;8235;52.198;9.904;2023-01-26T10:31:43;101558.16;;;-0.12;100.00
16255;BME280;8235;52.198;9.904;2023-01-26T10:34:14;101552.94;;;-0.10;100.00
16255;BME280;8235;52.198;9.904;2023-01-26T10:36:43;101553.78;;;-0.08;100.00
16255;BME280;8235;52.198;9.904;2023-01-26T10:39:11;101546.78;;;-0.06;100.00
16255;BME280;8235;52.198;9.904;2023-01-26T10:41:38;101550.28;;;-0.04;100.00
16255;BME280;8235;52.198;9.904;2023-01-26T10:44:20;101557.25;;;-0.03;100.00
16255;BME280;8235;52.198;9.904;2023-01-26T10:47:03;101550.28;;;-0.03;100.00
16255;BME280;8235;52.198;9.904;2023-01-26T10:49:29;101545.91;;;-0.01;100.00
16255;BME280;8235;52.198;9.904;2023-01-26T10:52:07;101538.88;;;0.03;100.00
16255;BME280;8235;52.198;9.904;2023-01-26T10:54:39;101534.50;;;0.07;100.00
16255;BME280;8235;52.198;9.904;2023-01-26T10:57:15;101529.25;;;0.08;100.00
16255;BME280;8235;52.198;9.904;2023-01-26T10:59:48;101524.88;;;0.10;100.00
16255;BME280;8235;52.198;9.904;2023-01-26T11:02:23;101512.63;;;0.14;100.00
16255;BME280;8235;52.198;9.904;2023-01-26T11:05:14;101511.75;;;0.16;100.00
16255;BME280;8235;52.198;9.904;2023-01-26T11:07:42;101511.75;;;0.18;100.00
16255;BME280;8235;52.198;9.904;2023-01-26T11:10:18;101516.06;;;0.20;100.00
16255;BME280;8235;52.198;9.904;2023-01-26T11:12:44;101512.56;;;0.23;100.00
16255;BME280;8235;52.198;9.904;2023-01-26T11:15:15;101509.91;;;0.26;100.00
16255;BME280;8235;52.198;9.904;2023-01-26T11:17:49;101500.28;;;0.28;100.00
16255;BME280;8235;52.198;9.904;2023-01-26T11:20:43;101501.16;;;0.31;100.00
16255;BME280;8235;52.198;9.904;2023-01-26T11:23:18;101508.13;;;0.34;100.00
16255;BME280;8235;52.198;9.904;2023-01-26T11:26:02;101501.09;;;0.36;100.00
16255;BME280;8235;52.198;9.904;2023-01-26T11:28:43;101503.69;;;0.38;100.00
16255;BME280;8235;52.198;9.904;2023-01-26T11:31:15;101498.47;;;0.38;100.00
16255;BME280;8235;52.198;9.904;2023-01-26T11:33:54;101498.47;;;0.38;99.65
16255;BME280;8235;52.198;9.904;2023-01-26T11:36:32;101488.84;;;0.37;99.39
16255;BME280;8235;52.198;9.904;2023-01-26T11:39:08;101494.06;;;0.40;99.66
16255;BME280;8235;52.198;9.904;2023-01-26T11:41:47;101491.44;;;0.43;99.63
16255;BME280;8235;52.198;9.904;2023-01-26T11:44:45;101486.19;;;0.44;99.26
16255;BME280;8235;52.198;9.904;2023-01-26T11:47:25;101483.56;;;0.46;99.19
16255;BME280;8235;52.198;9.904;2023-01-26T11:50:04;101485.28;;;0.48;99.13
16255;BME280;8235;52.198;9.904;2023-01-26T11:52:44;101486.16;;;0.49;98.93
16255;BME280;8235;52.198;9.904;2023-01-26T11:55:25;101489.66;;;0.49;98.77
16255;BME280;8235;52.198;9.904;2023-01-26T11:58:06;101484.41;;;0.48;98.83
16255;BME280;8235;52.198;9.904;2023-01-26T12:00:39;101481.78;;;0.49;98.73
16255;BME280;8235;52.198;9.904;2023-01-26T12:03:16;101472.16;;;0.50;98.36
16255;BME280;8235;52.198;9.904;2023-01-26T12:05:48;101476.53;;;0.51;98.22
16255;BME280;8235;52.198;9.904;2023-01-26T12:08:21;101469.53;;;0.53;98.45
16255;BME280;8235;52.198;9.904;2023-01-26T12:10:56;101460.75;;;0.54;98.24
16255;BME280;8235;52.198;9.904;2023-01-26T12:13:45;101462.47;;;0.56;98.19
16255;BME280;8235;52.198;9.904;2023-01-26T12:16:17;101456.34;;;0.57;98.15
16255;BME280;8235;52.198;9.904;2023-01-26T12:18:52;101457.25;;;0.55;98.17
16255;BME280;8235;52.198;9.904;2023-01-26T12:21:21;101455.50;;;0.54;97.60
16255;BME280;8235;52.198;9.904;2023-01-26T12:23:50;101452.94;;;0.52;97.70
16255;BME280;8235;52.198;9.904;2023-01-26T12:26:23;101451.19;;;0.51;97.63
16255;BME280;8235;52.198;9.904;2023-01-26T12:29:00;101444.22;;;0.50;97.49
16255;BME280;8235;52.198;9.904;2023-01-26T12:31:34;101443.34;;;0.51;97.53
16255;BME280;8235;52.198;9.904;2023-01-26T12:34:08;101433.72;;;0.50;97.65
16255;BME280;8235;52.198;9.904;2023-01-26T12:36:42;101432.84;;;0.53;97.70
16255;BME280;8235;52.198;9.904;2023-01-26T12:39:12;101428.47;;;0.53;97.39
16255;BME280;8235;52.198;9.904;2023-01-26T12:41:53;101431.91;;;0.54;97.43
16255;BME280;8235;52.198;9.904;2023-01-26T12:44:32;101437.16;;;0.54;97.50
16255;BME280;8235;52.198;9.904;2023-01-26T12:47:09;101433.72;;;0.52;97.66
16255;BME280;8235;52.198;9.904;2023-01-26T12:49:42;101440.69;;;0.53;97.33
16255;BME280;8235;52.198;9.904;2023-01-26T12:52:18;101431.97;;;0.52;97.49
16255;BME280;8235;52.198;9.904;2023-01-26T12:54:48;101428.47;;;0.52;97.38
16255;BME280;8235;52.198;9.904;2023-01-26T12:57:20;101430.22;;;0.51;97.48
16255;BME280;8235;52.198;9.904;2023-01-26T12:59:50;101439.81;;;0.52;97.45
16255;BME280;8235;52.198;9.904;2023-01-26T13:02:27;101429.34;;;0.52;97.38
16255;BME280;8235;52.198;9.904;2023-01-26T13:04:56;101428.47;;;0.53;97.33
16255;BME280;8235;52.198;9.904;2023-01-26T13:07:31;101424.97;;;0.53;97.61
16255;BME280;8235;52.198;9.904;2023-01-26T13:10:23;101424.03;;;0.55;97.62
16255;BME280;8235;52.198;9.904;2023-01-26T13:12:53;101420.56;;;0.55;97.96
16255;BME280;8235;52.198;9.904;2023-01-26T13:15:21;101411.81;;;0.56;97.82